Time;durP1;ratioP1;P1;durP2;ratioP2;P2;SDS_P1;SDS_P2;PMS_P1;PMS_P2;Temp;Humidity;BMP_temperature;BMP_pressure;BME280_temperature;BME280_humidity;BME280_pressure;Samples;Min_cycle;Max_cycle;Signal;HPM_P1;HPM_P2
2022/11/15 00:01:40;;;;;;;26.73;14.25;;;;;;;8.31;92.05;100756.13;5135807;27;20443;-61
2022/11/15 00:04:06;;;;;;;25.75;14.55;;;;;;;8.30;92.88;100762.22;5136097;27;20031;-61
2022/11/15 00:06:32;;;;;;;24.02;14.43;;;;;;;8.33;93.11;100751.78;5136237;27;20038;-61
2022/11/15 00:09:01;;;;;;;24.45;14.40;;;;;;;8.36;93.20;100748.31;5135877;27;20072;-61
2022/11/15 00:11:27;;;;;;;27.88;14.95;;;;;;;8.36;93.06;100745.69;5135827;27;20019;-62
2022/11/15 00:13:57;;;;;;;21.80;13.88;;;;;;;8.42;93.23;100746.69;5135026;27;20030;-61
2022/11/15 00:16:23;;;;;;;21.15;13.35;;;;;;;8.50;92.48;100752.09;5135785;27;20060;-61
2022/11/15 00:18:49;;;;;;;26.05;14.38;;;;;;;8.51;93.46;100745.97;5135731;27;20029;-61
2022/11/15 00:21:15;;;;;;;21.80;14.02;;;;;;;8.55;92.49;100746.91;5135609;27;20035;-61
2022/11/15 00:23:41;;;;;;;20.55;13.57;;;;;;;8.58;92.98;100750.50;5135694;27;20019;-61
2022/11/15 00:26:07;;;;;;;23.17;14.07;;;;;;;8.60;92.71;100745.25;5135376;27;20442;-61
2022/11/15 00:28:32;;;;;;;22.25;13.07;;;;;;;8.63;92.78;100743.56;5135433;27;20047;-61
2022/11/15 00:31:11;;;;;;;23.27;13.93;;;;;;;8.68;93.27;100744.50;5135292;27;20579;-61
2022/11/15 00:33:36;;;;;;;20.38;13.73;;;;;;;8.72;93.30;100737.56;5135780;27;20078;-61
2022/11/15 00:36:09;;;;;;;21.95;13.30;;;;;;;8.73;93.29;100732.28;5135411;27;20476;-61
2022/11/15 00:38:36;;;;;;;25.55;14.75;;;;;;;8.74;93.65;100747.25;5135644;27;20038;-61
2022/11/15 00:41:04;;;;;;;24.77;14.27;;;;;;;8.74;93.83;100742.00;5133921;27;20118;-61
2022/11/15 00:43:30;;;;;;;22.23;13.30;;;;;;;8.77;94.00;100738.50;5135266;27;20023;-61
2022/11/15 00:45:55;;;;;;;23.77;13.13;;;;;;;8.81;93.40;100735.06;5135154;27;20030;-61
2022/11/15 00:48:21;;;;;;;20.85;13.25;;;;;;;8.84;94.23;100727.22;5135160;27;20023;-62
2022/11/15 00:50:47;;;;;;;26.42;13.75;;;;;;;8.87;93.94;100726.38;5135034;27;20065;-61
2022/11/15 00:53:13;;;;;;;20.90;13.25;;;;;;;8.91;94.42;100730.84;5135041;27;20027;-61
2022/11/15 00:55:38;;;;;;;25.17;14.85;;;;;;;8.92;94.72;100719.44;5133730;27;20024;-61
2022/11/15 00:58:04;;;;;;;24.52;14.45;;;;;;;8.89;94.97;100720.25;5134976;27;20083;-61
2022/11/15 01:00:29;;;;;;;23.27;13.38;;;;;;;8.96;94.86;100721.25;5134608;27;20023;-61
2022/11/15 01:02:54;;;;;;;22.95;13.27;;;;;;;9.00;94.79;100728.34;5134932;27;20023;-61
2022/11/15 01:05:20;;;;;;;23.98;14.45;;;;;;;8.99;95.55;100718.66;5134858;27;20054;-62
2022/11/15 01:07:45;;;;;;;24.52;14.45;;;;;;;9.00;95.82;100716.06;5133606;27;20106;-61
2022/11/15 01:10:11;;;;;;;22.95;13.77;;;;;;;9.03;95.90;100723.97;5134922;27;20027;-61
2022/11/15 01:12:36;;;;;;;20.60;13.73;;;;;;;9.05;96.08;100720.50;5134609;27;20310;-62
2022/11/15 01:15:02;;;;;;;21.55;14.20;;;;;;;9.12;95.42;100715.34;5134676;27;20023;-61
2022/11/15 01:17:27;;;;;;;22.77;13.70;;;;;;;9.10;95.63;100708.28;5134867;27;20028;-62
2022/11/15 01:19:53;;;;;;;23.50;13.45;;;;;;;9.19;96.04;100711.91;5116063;27;20031;-61
2022/11/15 01:22:18;;;;;;;20.27;13.35;;;;;;;9.23;95.74;100695.28;5134561;27;20098;-61
2022/11/15 01:24:44;;;;;;;20.35;13.57;;;;;;;9.26;95.83;100700.59;5134509;27;20054;-62
2022/11/15 01:27:09;;;;;;;21.45;13.52;;;;;;;9.30;95.75;100698.91;5134309;27;20058;-61
2022/11/15 01:29:35;;;;;;;22.48;14.40;;;;;;;9.32;96.32;100697.16;5133856;27;20481;-62
2022/11/15 01:32:01;;;;;;;22.33;13.13;;;;;;;9.33;96.34;100698.03;5134363;27;20049;-61
2022/11/15 01:34:26;;;;;;;19.95;13.75;;;;;;;9.33;96.42;100693.66;5134497;27;20087;-62
2022/11/15 01:36:51;;;;;;;21.58;13.10;;;;;;;9.37;96.05;100692.81;5134238;27;20030;-61
2022/11/15 01:39:17;;;;;;;21.35;13.10;;;;;;;9.41;96.33;100686.72;5134196;27;20071;-62
2022/11/15 01:41:42;;;;;;;22.73;12.70;;;;;;;9.43;96.47;100690.28;5134123;27;20047;-61
2022/11/15 01:44:39;;;;;;;22.58;12.23;;;;;;;9.45;96.91;100691.19;5134115;27;20020;-62
2022/11/15 01:47:19;;;;;;;20.58;12.77;;;;;;;9.47;97.12;100693.84;5134009;27;20438;-61
2022/11/15 01:50:03;;;;;;;18.25;12.68;;;;;;;9.50;96.55;100699.16;5134038;27;20548;-62
2022/11/15 01:52:34;;;;;;;22.33;13.77;;;;;;;9.50;97.05;100692.13;5134391;27;20103;-61
2022/11/15 01:55:08;;;;;;;20.83;12.93;;;;;;;9.53;97.25;100691.28;5134270;27;20026;-62
2022/11/15 01:57:34;;;;;;;21.60;13.50;;;;;;;9.56;97.00;100691.31;5134088;27;20035;-61
2022/11/15 02:00:01;;;;;;;22.92;13.27;;;;;;;9.58;97.64;100693.97;5132425;27;20019;-61
2022/11/15 02:02:26;;;;;;;21.00;12.93;;;;;;;9.61;97.64;100689.63;5134264;27;20438;-62
2022/11/15 02:04:52;;;;;;;19.83;13.63;;;;;;;9.66;97.77;100692.31;5134063;27;20016;-61
2022/11/15 02:07:20;;;;;;;23.52;13.70;;;;;;;9.68;98.71;100691.47;5133975;27;20027;-61
2022/11/15 02:09:46;;;;;;;22.45;13.90;;;;;;;9.72;98.93;100679.19;5134056;27;20047;-61
2022/11/15 02:12:17;;;;;;;22.67;14.38;;;;;;;9.74;99.63;100677.47;5134148;27;20030;-61
2022/11/15 02:14:48;;;;;;;23.23;13.55;;;;;;;9.76;99.74;100673.06;5133914;27;20071;-62
2022/11/15 02:17:25;;;;;;;21.63;12.88;;;;;;;9.83;100.00;100674.03;5133879;27;20106;-61
2022/11/15 02:20:03;;;;;;;21.40;13.98;;;;;;;9.88;100.00;100672.31;5133822;27;20015;-62
2022/11/15 02:22:34;;;;;;;21.38;13.65;;;;;;;9.91;100.00;100665.34;5133710;28;20051;-66
2022/11/15 02:25:05;;;;;;;25.42;13.63;;;;;;;9.96;100.00;100662.75;5132422;28;20020;-62
2022/11/15 02:28:01;;;;;;;22.65;13.98;;;;;;;10.01;100.00;100672.47;5133455;28;20500;-62
2022/11/15 02:30:40;;;;;;;24.10;14.25;;;;;;;10.07;100.00;100671.66;5133864;28;20388;-61
2022/11/15 02:33:14;;;;;;;22.05;14.02;;;;;;;10.12;100.00;100669.06;5132380;28;20026;-61
2022/11/15 02:36:00;;;;;;;19.90;14.15;;;;;;;10.17;100.00;100664.72;5133418;27;20031;-62
2022/11/15 02:38:54;;;;;;;25.08;13.88;;;;;;;10.19;100.00;100663.88;5137976;27;20080;-61
2022/11/15 02:41:45;;;;;;;21.55;13.55;;;;;;;10.26;100.00;100656.91;5137762;27;20491;-61
2022/11/15 02:44:21;;;;;;;22.48;14.30;;;;;;;10.28;100.00;100663.09;5137630;27;20023;-62
2022/11/15 02:47:12;;;;;;;19.90;14.43;;;;;;;10.32;100.00;100653.41;5137605;27;20029;-61
2022/11/15 02:49:41;;;;;;;20.63;13.20;;;;;;;10.35;100.00;100654.34;5137614;27;20026;-61
2022/11/15 02:52:06;;;;;;;21.95;14.30;;;;;;;10.39;100.00;100650.84;5136148;27;20023;-62
2022/11/15 02:54:33;;;;;;;23.17;15.35;;;;;;;10.43;100.00;100652.66;5137498;27;20030;-62
2022/11/15 02:57:15;;;;;;;22.50;14.93;;;;;;;10.47;100.00;100656.22;5137618;27;20051;-61
2022/11/15 02:59:59;;;;;;;21.80;14.02;;;;;;;10.49;100.00;100643.88;5137068;27;20019;-61
2022/11/15 03:02:48;;;;;;;23.10;15.13;;;;;;;10.52;100.00;100644.78;5135981;27;20027;-61
2022/11/15 03:05:35;;;;;;;25.38;14.80;;;;;;;10.57;100.00;100633.38;5137196;27;20058;-61
2022/11/15 03:08:29;;;;;;;22.15;14.68;;;;;;;10.58;100.00;100635.13;5137271;27;20016;-61
2022/11/15 03:11:13;;;;;;;23.63;14.23;;;;;;;10.59;100.00;100632.53;5137088;27;20031;-62
2022/11/15 03:14:02;;;;;;;22.13;14.00;;;;;;;10.62;100.00;100629.91;5136987;27;20032;-61
2022/11/15 03:16:58;;;;;;;22.23;13.95;;;;;;;10.64;100.00;100630.78;5137065;27;20027;-62
2022/11/15 03:19:30;;;;;;;23.42;13.40;;;;;;;10.67;100.00;100641.41;5136848;27;20117;-61
2022/11/15 03:21:59;;;;;;;21.60;14.18;;;;;;;10.68;100.00;100642.28;5136865;27;20031;-61
2022/11/15 03:24:28;;;;;;;23.95;14.00;;;;;;;10.69;100.00;100649.31;5136863;27;20031;-61
2022/11/15 03:26:56;;;;;;;24.02;14.35;;;;;;;10.68;100.00;100640.50;5136610;27;20045;-61
2022/11/15 03:29:32;;;;;;;20.55;14.52;;;;;;;10.72;100.00;100644.06;5136736;27;20454;-61
2022/11/15 03:32:03;;;;;;;21.73;14.30;;;;;;;10.71;100.00;100635.25;5135388;27;20023;-61
2022/11/15 03:34:43;;;;;;;23.52;14.20;;;;;;;10.73;100.00;100637.91;5136687;27;20034;-62
2022/11/15 03:37:12;;;;;;;22.33;14.05;;;;;;;10.75;100.00;100631.75;5135518;27;20033;-62
2022/11/15 03:39:38;;;;;;;22.23;14.27;;;;;;;10.77;100.00;100634.41;5136638;27;20035;-61
2022/11/15 03:42:19;;;;;;;21.35;13.75;;;;;;;10.82;100.00;100640.59;5136594;27;20491;-61
2022/11/15 03:44:50;;;;;;;26.38;15.15;;;;;;;10.82;100.00;100643.25;5136493;27;20027;-61
2022/11/15 03:47:33;;;;;;;21.75;14.30;;;;;;;10.83;100.00;100642.34;5136296;27;20024;-62
2022/11/15 03:50:00;;;;;;;;;;;;;;;10.87;100.00;100630.06;5136810;27;20102;-61
2022/11/15 03:52:32;;;;;;;24.50;14.32;;;;;;;10.87;100.00;100633.56;5136235;27;19913;-61
2022/11/15 03:55:01;;;;;;;26.17;15.23;;;;;;;10.89;100.00;100639.78;5136196;27;20023;-61
2022/11/15 03:57:26;;;;;;;29.63;16.80;;;;;;;10.91;100.00;100630.06;5136159;27;20059;-61
2022/11/15 03:59:51;;;;;;;27.75;16.00;;;;;;;10.93;100.00;100632.75;5135958;27;20091;-62
2022/11/15 04:02:17;;;;;;;27.85;15.57;;;;;;;10.94;100.00;100632.75;5135915;27;20026;-61
2022/11/15 04:04:42;;;;;;;27.38;16.95;;;;;;;10.93;100.00;100633.63;5136141;27;20029;-61
2022/11/15 04:07:08;;;;;;;30.00;17.00;;;;;;;10.96;100.00;100638.03;5136156;27;20502;-61
2022/11/15 04:09:33;;;;;;;30.05;17.15;;;;;;;10.95;100.00;100634.50;5135896;27;20028;-61
2022/11/15 04:11:58;;;;;;;26.80;17.02;;;;;;;10.94;100.00;100632.75;5135934;27;20110;-61
2022/11/15 04:14:24;;;;;;;31.17;16.75;;;;;;;10.94;100.00;100630.09;5135875;27;20035;-62
2022/11/15 04:16:59;;;;;;;29.58;17.15;;;;;;;10.95;100.00;100630.97;5135813;27;20048;-61
2022/11/15 04:24:52;;;;;;;23.02;15.68;;;;;;;10.95;100.00;100631.88;5136021;27;20112;-61
2022/11/15 04:27:17;;;;;;;27.73;15.85;;;;;;;10.99;100.00;100635.41;5134177;27;20496;-62
2022/11/15 04:29:43;;;;;;;28.45;15.68;;;;;;;10.98;100.00;100626.59;5134161;27;20046;-61
2022/11/15 04:32:08;;;;;;;24.83;16.20;;;;;;;11.00;100.00;100637.16;5135568;27;20480;-61
2022/11/15 04:34:34;;;;;;;30.33;16.15;;;;;;;10.99;100.00;100625.72;5135698;27;20038;-62
2022/11/15 04:37:11;;;;;;;26.55;15.70;;;;;;;11.02;100.00;100627.50;5135704;27;20031;-61
2022/11/15 04:39:37;;;;;;;25.27;15.35;;;;;;;11.04;100.00;100629.25;5135330;27;20035;-62
2022/11/15 04:42:02;;;;;;;25.35;15.25;;;;;;;11.04;100.00;100631.03;5135298;27;20068;-61
2022/11/15 04:44:27;;;;;;;23.77;15.77;;;;;;;11.02;100.00;100628.38;5135317;27;20023;-61
2022/11/15 04:46:53;;;;;;;30.88;17.00;;;;;;;11.03;100.00;100637.19;5135200;27;20030;-61
2022/11/15 04:49:18;;;;;;;26.92;15.77;;;;;;;11.03;100.00;100634.56;5135136;27;20474;-62
2022/11/15 04:51:44;;;;;;;25.92;15.48;;;;;;;11.04;100.00;100641.59;5135130;27;20181;-62
2022/11/15 04:54:09;;;;;;;27.00;15.18;;;;;;;11.04;100.00;100631.91;5135195;27;20491;-61
2022/11/15 04:56:35;;;;;;;27.30;15.82;;;;;;;11.02;100.00;100633.69;5134987;27;20032;-61
2022/11/15 04:59:00;;;;;;;24.85;14.88;;;;;;;11.04;100.00;100631.03;5134514;27;20034;-62
2022/11/15 05:01:25;;;;;;;26.00;15.48;;;;;;;11.02;100.00;100631.03;5134651;27;20027;-62
2022/11/15 05:06:35;;;;;;;25.00;14.93;;;;;;;11.03;100.00;100627.50;5135118;27;20511;-62
2022/11/15 05:09:00;;;;;;;25.05;15.10;;;;;;;11.03;100.00;100634.56;5134736;27;20020;-62
2022/11/15 05:11:27;;;;;;;24.73;15.27;;;;;;;11.03;100.00;100630.16;5134710;27;20395;-62
2022/11/15 05:13:52;;;;;;;28.33;14.75;;;;;;;11.05;100.00;100630.19;5134740;27;20023;-61
2022/11/15 05:16:18;;;;;;;28.83;15.55;;;;;;;11.04;100.00;100629.25;5133452;27;20026;-61
2022/11/15 05:18:43;;;;;;;26.65;15.13;;;;;;;11.04;100.00;100633.66;5134756;27;20034;-62
2022/11/15 05:21:12;;;;;;;27.58;15.38;;;;;;;11.05;100.00;100635.47;5134449;27;20450;-61
2022/11/15 05:23:37;;;;;;;26.77;15.98;;;;;;;11.06;100.00;100631.06;5134506;27;20107;-62
2022/11/15 05:26:04;;;;;;;29.73;15.57;;;;;;;11.08;100.00;100622.22;5134507;27;20058;-62
2022/11/15 05:28:31;;;;;;;23.13;14.20;;;;;;;11.11;100.00;100629.31;5134246;27;20039;-61
2022/11/15 05:31:11;;;;;;;24.35;14.40;;;;;;;11.12;100.00;100625.78;5134147;27;20480;-61
2022/11/15 05:33:38;;;;;;;25.17;15.35;;;;;;;11.11;100.00;100622.25;5134647;27;20015;-61
2022/11/15 05:36:28;;;;;;;25.88;15.30;;;;;;;11.10;100.00;100623.16;5134501;27;20034;-62
2022/11/15 05:38:53;;;;;;;21.42;13.93;;;;;;;11.08;100.00;100616.06;5133253;27;20361;-62
2022/11/15 05:41:24;;;;;;;21.92;14.65;;;;;;;11.06;100.00;100613.44;5134056;27;20026;-63
2022/11/15 05:43:51;;;;;;;20.90;13.85;;;;;;;11.06;100.00;100610.78;5134244;27;20023;-62
2022/11/15 05:46:17;;;;;;;25.25;15.07;;;;;;;11.10;100.00;100611.69;5134357;27;20096;-62
2022/11/15 05:48:46;;;;;;;25.88;14.50;;;;;;;11.08;100.00;100619.59;5134314;27;20024;-62
2022/11/15 05:51:15;;;;;;;23.95;14.60;;;;;;;11.10;100.00;100622.28;5134031;27;20016;-61
2022/11/15 05:53:40;;;;;;;19.00;13.80;;;;;;;11.12;100.00;100615.22;5134032;27;20042;-61
2022/11/15 05:56:06;;;;;;;21.75;14.15;;;;;;;11.13;100.00;100611.69;5132954;27;20081;-62
2022/11/15 05:58:36;;;;;;;25.75;14.00;;;;;;;11.11;100.00;100622.25;5134266;27;20034;-62
2022/11/15 06:01:02;;;;;;;22.13;13.82;;;;;;;11.13;100.00;100625.78;5133724;27;20084;-62
2022/11/15 06:03:27;;;;;;;20.85;13.95;;;;;;;11.14;100.00;100630.22;5133751;27;20031;-62
2022/11/15 06:05:53;;;;;;;19.75;12.95;;;;;;;11.14;100.00;100631.97;5133718;27;20023;-62
2022/11/15 06:08:18;;;;;;;23.58;14.18;;;;;;;11.14;100.00;100640.78;5133924;27;20058;-62
2022/11/15 06:10:44;;;;;;;20.85;13.35;;;;;;;11.13;100.00;100644.28;5133926;27;20057;-62
2022/11/15 06:13:09;;;;;;;24.02;14.30;;;;;;;11.09;100.00;100637.25;5137557;27;20027;-62
2022/11/15 06:15:34;;;;;;;25.98;15.63;;;;;;;11.09;100.00;100642.53;5136056;27;20140;-62
2022/11/15 06:18:01;;;;;;;23.55;13.90;;;;;;;11.11;100.00;100638.13;5137983;27;20060;-61
2022/11/15 06:20:28;;;;;;;26.73;14.50;;;;;;;11.11;100.00;100642.53;5138012;27;20086;-61
2022/11/15 06:23:00;;;;;;;25.08;14.07;;;;;;;11.12;100.00;100639.00;5137992;27;20476;-62
2022/11/15 06:25:27;;;;;;;20.35;14.15;;;;;;;11.15;100.00;100650.50;5138241;27;20028;-62
2022/11/15 06:27:54;;;;;;;23.52;14.52;;;;;;;11.15;100.00;100645.19;5137794;27;20058;-61
2022/11/15 06:30:20;;;;;;;23.38;14.27;;;;;;;11.18;100.00;100642.59;5137644;27;20053;-62
2022/11/15 06:32:46;;;;;;;22.23;14.27;;;;;;;11.19;100.00;100640.81;5137591;27;20055;-62
2022/11/15 06:35:11;;;;;;;22.55;14.82;;;;;;;11.19;100.00;100647.00;5137761;27;20065;-62
2022/11/15 06:37:36;;;;;;;21.85;14.00;;;;;;;11.20;100.00;100646.09;5137781;27;20028;-62
2022/11/15 06:40:02;;;;;;;26.15;16.08;;;;;;;11.19;100.00;100661.97;5137634;27;20337;-62
2022/11/15 06:42:27;;;;;;;22.73;14.65;;;;;;;11.18;100.00;100650.50;5137626;27;20016;-63
2022/11/15 06:44:53;;;;;;;22.73;15.00;;;;;;;11.17;100.00;100654.00;5137940;27;20507;-62
2022/11/15 06:47:18;;;;;;;21.65;14.65;;;;;;;11.18;100.00;100657.56;5137472;27;20027;-62
2022/11/15 06:49:44;;;;;;;19.05;13.02;;;;;;;11.18;100.00;100662.88;5137460;27;20037;-62
2022/11/15 06:52:09;;;;;;;19.45;14.20;;;;;;;11.13;100.00;100661.94;5137445;27;20098;-62
2022/11/15 06:54:34;;;;;;;20.60;13.63;;;;;;;11.11;100.00;100667.22;5137451;27;20027;-62
2022/11/15 06:57:00;;;;;;;20.30;13.18;;;;;;;11.04;100.00;100658.34;5137388;27;20376;-62
2022/11/15 06:59:25;;;;;;;20.30;13.20;;;;;;;11.07;100.00;100668.06;5137485;27;20031;-62
2022/11/15 07:01:50;;;;;;;18.40;11.70;;;;;;;11.06;100.00;100665.44;5137087;27;20130;-61
2022/11/15 07:04:16;;;;;;;17.08;11.13;;;;;;;11.04;100.00;100666.28;5137216;27;20039;-62
2022/11/15 07:06:41;;;;;;;19.08;11.05;;;;;;;11.06;100.00;100666.31;5137176;27;20106;-62
2022/11/15 07:09:06;;;;;;;16.73;11.13;;;;;;;11.02;100.00;100668.06;5135859;27;20473;-62
2022/11/15 07:11:33;;;;;;;18.63;10.85;;;;;;;11.03;99.74;100666.28;5135843;27;20032;-62
2022/11/15 07:13:59;;;;;;;17.50;10.48;;;;;;;11.01;99.68;100668.06;5136996;27;20027;-63
2022/11/15 07:16:25;;;;;;;16.23;11.02;;;;;;;11.01;99.11;100670.69;5135753;27;20031;-62
2022/11/15 07:18:50;;;;;;;21.70;11.05;;;;;;;11.00;98.96;100675.06;5136918;27;20076;-62
2022/11/15 07:21:16;;;;;;;20.48;10.73;;;;;;;10.98;98.91;100671.53;5136871;27;20037;-62
2022/11/15 07:23:41;;;;;;;16.13;10.75;;;;;;;10.99;99.32;100680.34;5136353;27;20031;-62
2022/11/15 07:26:07;;;;;;;17.65;10.70;;;;;;;10.98;99.71;100679.47;5137068;27;20088;-62
2022/11/15 07:28:34;;;;;;;16.00;10.88;;;;;;;10.99;99.70;100685.66;5136655;27;20100;-63
2022/11/15 07:31:07;;;;;;;18.25;11.32;;;;;;;11.00;99.66;100680.34;5135242;27;20035;-63
2022/11/15 07:33:34;;;;;;;17.63;11.50;;;;;;;10.96;99.81;100686.53;5136742;27;20029;-62
2022/11/15 07:36:03;;;;;;;16.90;11.48;;;;;;;10.98;99.75;100681.25;5136670;27;20030;-64
2022/11/15 07:38:29;;;;;;;19.23;10.90;;;;;;;10.97;99.55;100680.38;5136562;27;20499;-62
2022/11/15 07:40:59;;;;;;;17.20;10.95;;;;;;;10.97;99.44;100683.00;5136439;27;20059;-62
2022/11/15 07:43:27;;;;;;;18.55;10.77;;;;;;;11.00;99.59;100677.72;5136575;27;20047;-62
2022/11/15 07:45:53;;;;;;;19.17;11.13;;;;;;;11.01;99.00;100678.63;5135090;27;20031;-62
2022/11/15 07:48:19;;;;;;;18.63;11.00;;;;;;;11.02;99.28;100670.69;5136379;27;20027;-61
2022/11/15 07:50:44;;;;;;;20.50;11.38;;;;;;;11.00;98.76;100663.63;5136306;27;20388;-62
2022/11/15 07:53:10;;;;;;;21.02;11.95;;;;;;;11.01;99.19;100676.88;5136549;27;20038;-62
2022/11/15 07:55:36;;;;;;;18.65;11.32;;;;;;;11.02;99.32;100661.88;5136505;27;20035;-62
2022/11/15 07:58:07;;;;;;;20.67;11.63;;;;;;;11.00;99.55;100667.13;5136176;27;20030;-63
2022/11/15 08:00:33;;;;;;;19.30;11.82;;;;;;;11.03;99.15;100669.81;5135924;27;20048;-63
2022/11/15 08:03:10;;;;;;;18.83;11.00;;;;;;;11.01;98.91;100663.66;5134739;27;20031;-62
2022/11/15 08:05:37;;;;;;;15.43;10.45;;;;;;;11.03;98.49;100671.56;5136500;27;20031;-62
2022/11/15 08:08:03;;;;;;;16.08;10.07;;;;;;;11.02;98.53;100686.56;5135944;27;20396;-62
2022/11/15 08:10:29;;;;;;;16.27;9.98;;;;;;;11.04;98.21;100675.97;5135890;27;20511;-61
2022/11/15 08:13:02;;;;;;;17.85;10.60;;;;;;;10.99;98.64;100690.94;5135897;27;20056;-62
2022/11/15 08:15:28;;;;;;;15.27;9.75;;;;;;;10.98;98.23;100692.69;5135905;27;20034;-62
2022/11/15 08:17:59;;;;;;;17.25;9.43;;;;;;;10.98;98.62;100692.69;5135806;27;20019;-62
2022/11/15 08:20:29;;;;;;;16.13;8.77;;;;;;;10.98;98.20;100692.69;5135725;27;20247;-62
2022/11/15 08:22:55;;;;;;;11.93;8.52;;;;;;;10.97;98.19;100698.00;5135749;27;20027;-62
2022/11/15 08:25:20;;;;;;;13.60;8.98;;;;;;;10.93;97.92;100691.78;5135650;27;20027;-61
2022/11/15 08:27:46;;;;;;;13.85;8.48;;;;;;;10.94;98.44;100693.56;5134097;27;20095;-61
2022/11/15 08:30:12;;;;;;;13.35;8.60;;;;;;;10.93;98.06;100686.50;5135282;27;20035;-62
2022/11/15 08:32:37;;;;;;;14.95;8.63;;;;;;;10.96;97.78;100678.59;5135394;27;20019;-63
2022/11/15 08:35:03;;;;;;;14.73;8.93;;;;;;;10.92;98.20;100678.53;5134648;27;20061;-62
2022/11/15 08:37:28;;;;;;;16.88;8.57;;;;;;;10.91;98.41;100682.94;5135280;27;20029;-62
2022/11/15 08:39:54;;;;;;;15.25;8.68;;;;;;;10.88;98.43;100677.66;5135250;27;20019;-62
2022/11/15 08:42:19;;;;;;;13.70;8.45;;;;;;;10.91;98.22;100675.00;5135330;27;20028;-62
2022/11/15 08:44:44;;;;;;;13.32;8.55;;;;;;;10.93;98.54;100672.41;5135233;27;20027;-62
2022/11/15 08:47:13;;;;;;;13.27;8.38;;;;;;;10.98;98.61;100665.38;5135269;27;20019;-62
2022/11/15 08:49:39;;;;;;;17.50;8.57;;;;;;;11.07;97.92;100653.97;5135160;27;20564;-62
2022/11/15 08:52:04;;;;;;;13.73;7.97;;;;;;;11.17;97.66;100651.38;5135134;27;20109;-62
2022/11/15 08:54:30;;;;;;;12.20;7.60;;;;;;;11.36;97.31;100656.78;5134980;27;20016;-62
2022/11/15 08:56:55;;;;;;;10.75;6.95;;;;;;;11.49;95.61;100659.47;5135009;27;20117;-62
2022/11/15 08:59:20;;;;;;;14.05;6.97;;;;;;;11.54;94.59;100651.53;5134898;27;20529;-62
2022/11/15 09:01:47;;;;;;;11.30;6.95;;;;;;;11.59;94.12;100659.50;5134607;27;20055;-62
2022/11/15 09:04:12;;;;;;;9.77;6.05;;;;;;;11.70;93.74;100658.66;5134882;27;20499;-62
2022/11/15 09:06:38;;;;;;;10.60;6.85;;;;;;;11.82;92.40;100654.25;5134695;27;20031;-62
2022/11/15 09:09:03;;;;;;;11.00;5.97;;;;;;;11.98;91.57;100661.41;5134808;27;20023;-62
2022/11/15 09:11:29;;;;;;;10.27;5.95;;;;;;;12.19;90.83;100645.53;5134778;27;20054;-62
2022/11/15 09:13:54;;;;;;;7.80;5.18;;;;;;;12.22;88.64;100644.66;5134643;27;20027;-62
2022/11/15 09:16:20;;;;;;;8.27;5.15;;;;;;;12.08;88.15;100634.06;5134634;27;20099;-62
2022/11/15 09:18:45;;;;;;;6.72;4.43;;;;;;;11.96;89.05;100640.22;5134559;27;20476;-62
2022/11/15 09:21:10;;;;;;;9.00;4.70;;;;;;;11.88;89.30;100634.03;5134399;27;20058;-61
2022/11/15 09:23:37;;;;;;;7.38;4.68;;;;;;;11.83;89.86;100624.31;5134736;27;20051;-62
2022/11/15 09:26:04;;;;;;;6.72;4.18;;;;;;;11.72;90.31;100619.84;5134680;27;20096;-62
2022/11/15 09:28:30;;;;;;;8.20;4.25;;;;;;;11.66;90.31;100614.53;5134214;27;20064;-62
2022/11/15 09:31:00;;;;;;;8.77;4.70;;;;;;;11.68;91.18;100623.34;5134205;27;20039;-62
2022/11/15 09:33:27;;;;;;;8.93;4.68;;;;;;;11.67;90.76;100626.00;5134324;27;20027;-61
2022/11/15 09:35:53;;;;;;;6.22;4.35;;;;;;;11.69;90.88;100626.88;5134203;27;20042;-62
2022/11/15 09:38:18;;;;;;;7.32;4.78;;;;;;;11.82;90.78;100622.50;5134521;27;20088;-62
2022/11/15 09:40:51;;;;;;;14.40;5.18;;;;;;;12.01;90.31;100608.44;5134169;27;20049;-62
2022/11/15 09:43:44;;;;;;;5.93;4.10;;;;;;;12.23;87.24;100619.94;5134250;27;20027;-61
2022/11/15 09:46:34;;;;;;;8.77;4.00;;;;;;;12.34;86.42;100612.88;5134138;27;20031;-61
2022/11/15 09:49:03;;;;;;;5.18;3.78;;;;;;;12.38;84.15;100612.00;5134071;27;20047;-61
2022/11/15 09:51:36;;;;;;;6.55;3.88;;;;;;;12.40;83.29;100612.00;5134271;27;20019;-61
2022/11/15 09:54:27;;;;;;;5.68;3.38;;;;;;;12.47;82.31;100614.66;5134059;27;20057;-62
2022/11/15 09:56:55;;;;;;;5.75;3.45;;;;;;;12.65;81.33;100600.47;5129044;27;20043;-62
2022/11/15 09:59:53;;;;;;;5.50;2.67;;;;;;;12.88;78.97;100610.16;5133930;27;20015;-61
2022/11/15 10:02:28;;;;;;;7.43;2.55;;;;;;;13.09;78.38;100601.25;5117231;27;20043;-61
2022/11/15 10:04:54;;;;;;;6.60;2.35;;;;;;;13.09;73.16;100610.09;5133892;27;20023;-62
2022/11/15 10:07:39;;;;;;;5.32;2.45;;;;;;;13.14;73.35;100588.84;5133637;27;20023;-61
2022/11/15 10:10:15;;;;;;;5.82;2.20;;;;;;;13.27;71.96;100607.41;5133797;27;20045;-61
2022/11/15 10:12:47;;;;;;;5.82;2.42;;;;;;;13.28;70.78;100597.69;5134085;27;20031;-62
2022/11/15 10:15:16;;;;;;;5.18;2.35;;;;;;;13.29;70.70;100604.75;5133699;27;20023;-62
2022/11/15 10:17:53;;;;;;;4.43;1.90;;;;;;;13.34;69.83;100600.28;5133960;27;20042;-61
2022/11/15 10:20:28;;;;;;;9.07;2.63;;;;;;;13.41;69.31;100586.13;5133586;27;20033;-62
2022/11/15 10:23:00;;;;;;;4.80;1.90;;;;;;;13.22;67.56;100590.63;5133670;27;20026;-62
2022/11/15 10:25:31;;;;;;;6.00;2.00;;;;;;;13.21;67.88;100595.91;5133558;27;20070;-61
2022/11/15 10:28:21;;;;;;;7.05;1.95;;;;;;;13.11;69.07;100592.41;5133322;27;20047;-62
2022/11/15 10:30:49;;;;;;;8.68;2.10;;;;;;;12.99;68.70;100595.09;5133447;27;20035;-66
2022/11/15 10:33:44;;;;;;;3.70;1.80;;;;;;;12.97;69.29;100580.94;5133625;27;20145;-61
2022/11/15 10:36:09;;;;;;;7.38;2.03;;;;;;;12.87;67.60;100574.78;5124404;27;20073;-61
2022/11/15 10:38:49;;;;;;;6.45;2.05;;;;;;;12.77;68.33;100570.41;5133359;27;20192;-61
2022/11/15 10:41:37;;;;;;;7.13;2.38;;;;;;;12.73;68.69;100561.59;5133621;27;20429;-62
2022/11/15 10:44:20;;;;;;;6.28;1.80;;;;;;;12.90;68.01;100560.66;5133481;27;20042;-61
2022/11/15 10:46:55;;;;;;;3.15;1.90;;;;;;;12.94;67.08;100562.41;5133399;27;20019;-61
2022/11/15 10:49:28;;;;;;;4.07;1.77;;;;;;;12.97;66.37;100554.41;5133398;27;20465;-62
2022/11/15 10:51:58;;;;;;;4.80;2.35;;;;;;;13.13;67.01;100540.22;5133331;27;20110;-61
2022/11/15 10:54:39;;;;;;;5.05;2.03;;;;;;;13.29;67.15;100541.06;5133232;27;20038;-61
2022/11/15 10:57:26;;;;;;;7.22;2.10;;;;;;;13.47;65.93;100540.94;5133490;27;20020;-61
2022/11/15 10:59:59;;;;;;;4.00;1.95;;;;;;;13.58;65.22;100556.81;5137191;27;20080;-62
2022/11/15 11:02:29;;;;;;;4.95;1.70;;;;;;;13.65;63.97;100552.34;5137237;27;20030;-61
2022/11/15 11:04:54;;;;;;;4.50;1.88;;;;;;;13.79;64.45;100542.53;5137069;27;20048;-62
2022/11/15 11:07:29;;;;;;;4.88;2.00;;;;;;;14.00;64.67;100542.38;5137056;27;20019;-69
2022/11/15 11:10:19;;;;;;;4.93;1.98;;;;;;;14.13;63.80;100521.88;5137266;27;20102;-61
2022/11/15 11:12:44;;;;;;;6.32;2.17;;;;;;;14.20;63.33;100536.84;5137008;27;20029;-61
2022/11/15 11:15:13;;;;;;;5.35;2.20;;;;;;;14.03;62.58;100538.78;5137169;27;20030;-62
2022/11/15 11:18:09;;;;;;;3.88;1.90;;;;;;;14.15;63.07;100528.06;5136831;27;20022;-62
2022/11/15 11:20:38;;;;;;;7.95;2.00;;;;;;;14.22;61.50;100516.47;5137043;27;20023;-62
2022/11/15 11:23:31;;;;;;;5.15;1.92;;;;;;;14.18;62.02;100516.53;5137058;27;20023;-61
2022/11/15 11:26:33;;;;;;;5.35;2.08;;;;;;;14.24;62.42;100520.00;5136806;27;20110;-62
2022/11/15 11:29:43;;;;;;;4.97;1.90;;;;;;;14.39;62.18;100497.72;5136595;27;20107;-62
2022/11/15 11:32:38;;;;;;;6.88;2.30;;;;;;;14.37;61.56;100495.94;5116240;27;20415;-62
2022/11/15 11:35:36;;;;;;;6.05;1.95;;;;;;;14.29;61.96;100488.06;5136615;27;20160;-61